Time;durP1;ratioP1;P1;durP2;ratioP2;P2;SDS_P1;SDS_P2;PMS_P1;PMS_P2;Temp;Humidity;BMP_temperature;BMP_pressure;BME280_temperature;BME280_humidity;BME280_pressure;Samples;Min_cycle;Max_cycle;Signal;HPM_P1;HPM_P2
2021/10/17 00:00:49;;;;;;;2.75;2.05;;;;;;;25.80;34.63;96934.41;5013272;28;20053;-31
2021/10/17 00:03:14;;;;;;;4.70;2.30;;;;;;;25.80;34.73;96937.91;5013083;28;20030;-28
2021/10/17 00:05:40;;;;;;;3.35;1.98;;;;;;;25.80;34.73;96934.41;5017233;28;20328;-30
2021/10/17 00:08:07;;;;;;;2.75;1.83;;;;;;;25.81;34.79;96931.72;5014914;28;20076;-32
2021/10/17 00:10:33;;;;;;;3.35;1.90;;;;;;;25.81;34.63;96931.72;5014006;28;20030;-30
2021/10/17 00:13:00;;;;;;;5.82;2.17;;;;;;;25.81;34.61;96936.97;5010257;28;20759;-29
2021/10/17 00:15:26;;;;;;;3.10;2.20;;;;;;;25.81;34.63;96944.84;5015238;28;20035;-31
2021/10/17 00:17:52;;;;;;;2.88;2.08;;;;;;;25.81;34.63;96939.59;5014523;28;20026;-27
2021/10/17 00:20:18;;;;;;;2.58;2.00;;;;;;;25.81;34.70;96942.22;5010504;28;20557;-29
2021/10/17 00:22:44;;;;;;;2.53;1.75;;;;;;;25.80;34.83;96939.66;5014674;28;20030;-29
2021/10/17 00:25:10;;;;;;;2.40;1.90;;;;;;;25.81;34.81;96947.47;5015616;28;20400;-32
2021/10/17 00:27:35;;;;;;;2.33;1.80;;;;;;;25.81;34.68;96941.38;5012295;28;20033;-30
2021/10/17 00:30:01;;;;;;;4.57;2.30;;;;;;;25.83;34.74;96939.53;5011938;28;21065;-28
2021/10/17 00:32:26;;;;;;;4.43;2.00;;;;;;;25.81;34.68;96939.59;5002945;28;20704;-28
2021/10/17 00:34:52;;;;;;;3.10;2.10;;;;;;;25.82;34.62;96932.59;5003212;28;20630;-28
2021/10/17 00:37:19;;;;;;;2.05;1.58;;;;;;;25.83;34.66;96929.03;5003902;28;20147;-32
2021/10/17 00:39:45;;;;;;;3.63;2.03;;;;;;;25.82;34.59;96928.16;5001851;28;20035;-30
2021/10/17 00:42:10;;;;;;;2.55;1.65;;;;;;;25.82;34.72;96928.16;5003281;28;20043;-28
2021/10/17 00:44:38;;;;;;;2.42;1.83;;;;;;;25.82;34.72;96927.34;5006613;28;20766;-30
2021/10/17 00:47:04;;;;;;;3.17;2.08;;;;;;;25.82;34.67;96932.59;5007162;28;20155;-27
2021/10/17 00:49:29;;;;;;;2.13;1.83;;;;;;;25.81;34.82;96926.47;5005383;28;20751;-31
2021/10/17 00:51:54;;;;;;;2.38;1.75;;;;;;;25.82;34.62;96922.09;5001324;28;20413;-30
2021/10/17 00:54:20;;;;;;;2.50;2.20;;;;;;;25.82;34.67;96922.91;5011897;28;20610;-32
2021/10/17 00:56:45;;;;;;;2.38;1.85;;;;;;;25.81;34.76;96923.84;5004006;28;20034;-30
2021/10/17 00:59:11;;;;;;;3.35;1.80;;;;;;;25.81;34.77;96931.72;5008319;28;20035;-28
2021/10/17 01:01:37;;;;;;;2.33;1.58;;;;;;;25.80;34.60;96927.41;5009137;28;20091;-29
2021/10/17 01:04:03;;;;;;;3.58;1.75;;;;;;;25.81;34.74;96917.75;5009156;28;20042;-30
2021/10/17 01:06:28;;;;;;;2.22;1.50;;;;;;;25.80;34.84;96909.03;5008300;28;20048;-29
2021/10/17 01:08:54;;;;;;;2.28;1.42;;;;;;;25.80;34.67;96919.53;5011206;28;20033;-31
2021/10/17 01:11:20;;;;;;;3.28;1.95;;;;;;;25.78;34.83;96913.50;5000614;28;20022;-30
2021/10/17 01:13:45;;;;;;;1.85;1.60;;;;;;;25.80;34.80;96914.28;5005108;28;20083;-31
2021/10/17 01:16:10;;;;;;;6.03;2.95;;;;;;;25.80;34.61;96918.66;5006749;28;20045;-32
2021/10/17 01:18:36;;;;;;;3.78;2.70;;;;;;;25.79;34.40;96907.34;5005012;28;20604;-28
2021/10/17 01:21:01;;;;;;;2.10;1.85;;;;;;;25.79;34.54;96904.72;5002139;28;20569;-29
2021/10/17 01:23:27;;;;;;;3.17;1.90;;;;;;;25.78;34.38;96905.63;5001586;28;20038;-29
2021/10/17 01:25:52;;;;;;;3.35;1.90;;;;;;;25.77;34.63;96900.44;5005771;28;20037;-34
2021/10/17 01:28:17;;;;;;;3.03;1.73;;;;;;;25.78;34.77;96904.78;5001900;28;20030;-30
2021/10/17 01:30:43;;;;;;;2.58;1.70;;;;;;;25.78;34.74;96899.53;5004658;28;21182;-28
2021/10/17 01:33:08;;;;;;;1.83;1.65;;;;;;;25.78;34.68;96899.53;5007086;28;20052;-30
2021/10/17 01:35:34;;;;;;;2.13;1.30;;;;;;;25.78;34.83;96897.75;5009731;28;20025;-28
2021/10/17 01:37:59;;;;;;;2.13;1.50;;;;;;;25.78;34.78;96903.00;5008783;28;20017;-31
2021/10/17 01:40:25;;;;;;;2.00;1.42;;;;;;;25.77;34.64;96893.44;5010030;28;20553;-30
2021/10/17 01:42:50;;;;;;;3.08;1.77;;;;;;;25.77;34.49;96882.94;5008114;28;20119;-28
2021/10/17 01:45:15;;;;;;;3.70;1.52;;;;;;;25.76;34.77;96883.88;5009435;28;20442;-30
2021/10/17 01:47:48;;;;;;;3.00;1.40;;;;;;;25.77;34.69;96884.69;5010693;28;20516;-30
2021/10/17 01:50:13;;;;;;;2.08;1.58;;;;;;;25.74;34.79;96882.25;5011878;28;20057;-32
2021/10/17 01:52:40;;;;;;;1.63;1.52;;;;;;;25.77;34.67;96882.94;5012206;28;20096;-28
2021/10/17 01:55:06;;;;;;;2.65;1.42;;;;;;;25.76;34.67;96883.88;5008619;28;20033;-30
2021/10/17 01:57:31;;;;;;;2.05;1.45;;;;;;;25.73;34.76;96881.38;5008918;28;20044;-32
2021/10/17 01:59:56;;;;;;;1.45;1.20;;;;;;;25.77;34.66;96884.69;5010350;28;20044;-28
2021/10/17 02:02:22;;;;;;;2.33;1.70;;;;;;;25.76;34.67;96881.25;5012267;28;20041;-30
2021/10/17 02:04:47;;;;;;;1.55;1.33;;;;;;;25.77;34.74;96884.69;5012733;28;20805;-31
2021/10/17 02:07:13;;;;;;;1.48;1.38;;;;;;;25.76;34.71;96876.00;5010110;28;20025;-31
2021/10/17 02:09:38;;;;;;;1.65;1.48;;;;;;;25.75;34.73;96884.81;5010757;28;20141;-29
2021/10/17 02:12:04;;;;;;;2.03;1.77;;;;;;;25.77;34.85;96882.06;5009597;28;20449;-31
2021/10/17 02:14:29;;;;;;;2.05;1.50;;;;;;;25.76;34.90;96881.25;5010139;28;20029;-30
2021/10/17 02:16:55;;;;;;;1.65;1.45;;;;;;;25.76;34.84;96881.25;5012564;28;20030;-28
2021/10/17 02:19:20;;;;;;;2.38;1.48;;;;;;;25.75;34.77;96873.44;5008595;28;20416;-30
2021/10/17 02:21:46;;;;;;;2.13;1.40;;;;;;;25.75;34.88;96879.56;5011219;28;20675;-28
2021/10/17 02:24:11;;;;;;;1.92;1.35;;;;;;;25.76;34.96;96877.75;5009432;28;20033;-30
2021/10/17 02:26:39;;;;;;;3.30;1.17;;;;;;;25.76;34.62;96875.13;5007550;28;20471;-29
2021/10/17 02:29:06;;;;;;;1.58;1.48;;;;;;;25.76;34.97;96870.75;5014302;28;20531;-29
2021/10/17 02:31:31;;;;;;;1.77;1.42;;;;;;;25.75;34.77;96874.31;5013935;28;20037;-33
2021/10/17 02:33:57;;;;;;;2.15;1.63;;;;;;;25.75;34.84;96866.44;5003662;28;20087;-32
2021/10/17 02:36:22;;;;;;;1.85;1.30;;;;;;;25.76;34.80;96868.13;4998716;28;20264;-25
2021/10/17 02:38:47;;;;;;;2.10;1.33;;;;;;;25.75;34.71;96863.81;5007836;28;20136;-28
2021/10/17 02:41:13;;;;;;;1.65;1.52;;;;;;;25.74;34.74;96864.72;5007108;28;20033;-29
2021/10/17 02:43:38;;;;;;;2.15;1.50;;;;;;;25.74;34.93;96862.09;5008066;28;20033;-32
2021/10/17 02:46:04;;;;;;;1.20;1.10;;;;;;;25.75;34.89;96868.19;5004932;28;20029;-29
2021/10/17 02:48:29;;;;;;;2.50;1.30;;;;;;;25.74;34.93;96869.97;5008874;28;20037;-29
2021/10/17 02:50:54;;;;;;;1.98;1.40;;;;;;;25.75;34.79;96862.94;5009534;28;20065;-31
2021/10/17 02:53:20;;;;;;;1.80;1.33;;;;;;;25.75;34.89;96868.19;5007930;28;20048;-30
2021/10/17 02:55:45;;;;;;;1.58;1.30;;;;;;;25.75;34.74;96868.19;5005886;28;20033;-29
2021/10/17 02:58:11;;;;;;;1.30;1.20;;;;;;;25.74;34.70;96867.34;5006911;28;20686;-32
2021/10/17 03:00:36;;;;;;;1.88;1.60;;;;;;;25.74;34.83;96867.34;5007160;28;20041;-32
2021/10/17 03:03:01;;;;;;;1.63;1.35;;;;;;;25.74;34.87;96869.97;5023919;28;20068;-30
2021/10/17 03:05:27;;;;;;;1.35;1.10;;;;;;;25.72;34.95;96869.19;5009808;28;20037;-30
2021/10/17 03:07:52;;;;;;;2.03;1.30;;;;;;;25.74;35.00;96867.34;5012922;28;20037;-24
2021/10/17 03:10:18;;;;;;;1.40;1.17;;;;;;;25.74;34.87;96871.75;5013974;28;20018;-33
2021/10/17 03:12:43;;;;;;;1.42;1.23;;;;;;;25.74;34.80;96872.59;5014218;28;20036;-31
2021/10/17 03:15:09;;;;;;;1.83;1.40;;;;;;;25.73;34.83;96870.88;5011891;28;20392;-29
2021/10/17 03:17:35;;;;;;;1.17;1.00;;;;;;;25.73;34.79;96860.41;5013974;28;20076;-28
2021/10/17 03:20:00;;;;;;;1.85;1.20;;;;;;;25.74;34.96;96866.50;5008881;28;20117;-30
2021/10/17 03:22:26;;;;;;;1.30;1.20;;;;;;;25.73;34.81;96860.41;5013241;28;20037;-30
2021/10/17 03:24:51;;;;;;;1.73;1.17;;;;;;;25.74;34.91;96867.34;5011307;28;20029;-28
2021/10/17 03:27:17;;;;;;;1.67;1.23;;;;;;;25.74;34.79;96856.00;5007733;28;20503;-32
2021/10/17 03:29:42;;;;;;;2.78;1.25;;;;;;;25.74;34.98;96856.00;5012394;28;20033;-30
2021/10/17 03:32:07;;;;;;;2.38;1.50;;;;;;;25.73;34.86;96855.16;5012663;28;20087;-31
2021/10/17 03:34:33;;;;;;;2.03;1.35;;;;;;;25.74;34.88;96856.84;5010282;28;20040;-33
2021/10/17 03:36:58;;;;;;;1.77;1.42;;;;;;;25.74;34.77;96858.63;5009418;28;20030;-30
2021/10/17 03:39:23;;;;;;;5.00;1.30;;;;;;;25.74;34.73;96854.22;5013526;28;20025;-32
2021/10/17 03:41:49;;;;;;;4.72;2.83;;;;;;;25.73;34.68;96852.53;5012691;28;20042;-30
2021/10/17 03:44:14;;;;;;;7.60;3.20;;;;;;;25.73;34.50;96854.31;5011368;28;20051;-30
2021/10/17 03:46:40;;;;;;;3.67;1.77;;;;;;;25.73;34.55;96854.31;5011094;28;20048;-32
2021/10/17 03:49:05;;;;;;;2.30;1.45;;;;;;;25.70;34.74;96855.28;5014969;28;20087;-32
2021/10/17 03:51:30;;;;;;;1.95;1.58;;;;;;;25.72;34.68;96858.69;5011546;28;20850;-32
2021/10/17 03:53:56;;;;;;;2.00;1.50;;;;;;;25.72;34.89;96858.69;5011349;28;20029;-30
2021/10/17 03:56:21;;;;;;;1.52;1.27;;;;;;;25.70;34.75;96858.78;5010595;28;20033;-26
2021/10/17 03:58:47;;;;;;;1.40;1.30;;;;;;;25.70;34.93;96856.16;5016939;28;20451;-31
2021/10/17 04:01:12;;;;;;;1.73;1.40;;;;;;;25.71;34.97;96857.00;5014003;28;20030;-31
2021/10/17 04:03:37;;;;;;;1.35;1.20;;;;;;;25.71;34.89;96851.75;5014220;28;20048;-28
2021/10/17 04:06:06;;;;;;;2.30;1.45;;;;;;;25.72;34.99;96855.22;5014046;28;20052;-29
2021/10/17 04:08:31;;;;;;;4.97;1.60;;;;;;;25.70;34.97;96855.28;5013626;28;20060;-33
2021/10/17 04:10:57;;;;;;;1.85;1.50;;;;;;;25.70;34.74;96852.66;5030942;28;20080;-28
2021/10/17 04:13:22;;;;;;;1.75;1.63;;;;;;;25.70;34.89;96847.41;5011731;28;20096;-26
2021/10/17 04:15:47;;;;;;;1.50;1.25;;;;;;;25.71;35.05;96851.75;5013356;28;20038;-32
2021/10/17 04:18:13;;;;;;;2.95;1.20;;;;;;;25.72;34.84;96847.34;5013508;28;20029;-33
2021/10/17 04:20:38;;;;;;;1.45;1.23;;;;;;;25.71;34.96;96851.75;5010399;28;20057;-29
2021/10/17 04:23:05;;;;;;;1.58;1.30;;;;;;;25.71;34.97;96851.75;5014729;28;20492;-27
2021/10/17 04:25:31;;;;;;;1.55;1.23;;;;;;;25.71;34.90;96851.75;5013746;28;20036;-30
2021/10/17 04:27:56;;;;;;;2.20;1.40;;;;;;;25.72;34.89;96852.59;5007906;28;20029;-30
2021/10/17 04:30:22;;;;;;;2.10;1.10;;;;;;;25.70;34.90;96856.16;5007974;28;20278;-29
2021/10/17 04:32:47;;;;;;;1.52;1.00;;;;;;;25.70;34.96;96850.91;5008651;28;20037;-33
2021/10/17 04:35:12;;;;;;;1.83;1.40;;;;;;;25.71;34.89;96846.50;5011077;28;20037;-29
2021/10/17 04:37:38;;;;;;;2.25;1.30;;;;;;;25.71;34.97;96857.00;5010958;28;20069;-33
2021/10/17 04:40:05;;;;;;;1.50;1.40;;;;;;;25.70;34.85;96852.66;5014530;28;20111;-32
2021/10/17 04:42:30;;;;;;;2.28;1.50;;;;;;;25.69;34.81;96849.22;5005523;28;20063;-30
2021/10/17 04:44:56;;;;;;;1.85;1.00;;;;;;;25.71;35.00;96857.00;5012040;28;20411;-35
2021/10/17 04:47:21;;;;;;;3.75;1.23;;;;;;;25.70;34.95;96855.28;5000465;28;20072;-28
2021/10/17 04:49:47;;;;;;;2.05;1.33;;;;;;;25.70;35.04;96844.78;5006890;28;20090;-30
2021/10/17 04:52:12;;;;;;;1.10;1.00;;;;;;;25.70;34.81;96844.78;5013455;28;20037;-27
2021/10/17 04:54:37;;;;;;;1.42;1.33;;;;;;;25.69;34.91;96846.59;5006042;28;20044;-31
2021/10/17 04:57:03;;;;;;;1.58;1.35;;;;;;;25.69;34.98;96848.34;5005787;28;20033;-32
2021/10/17 04:59:28;;;;;;;2.28;1.20;;;;;;;25.69;34.94;96848.34;5013934;28;20628;-33
2021/10/17 05:01:54;;;;;;;1.40;1.30;;;;;;;25.69;34.95;96848.34;5010648;28;20029;-29
2021/10/17 05:04:19;;;;;;;1.50;1.23;;;;;;;25.70;34.92;96844.78;5013487;28;20111;-29
2021/10/17 05:06:45;;;;;;;1.80;1.30;;;;;;;25.69;34.97;96843.09;5010774;28;20105;-30
2021/10/17 05:09:10;;;;;;;1.27;1.17;;;;;;;25.69;34.78;96845.72;5011214;28;20456;-30
2021/10/17 05:11:36;;;;;;;1.80;1.17;;;;;;;25.69;35.00;96837.84;5005794;28;20035;-29
2021/10/17 05:14:01;;;;;;;1.42;0.93;;;;;;;25.69;34.90;96843.09;5006239;28;20515;-29
2021/10/17 05:16:27;;;;;;;1.35;1.20;;;;;;;25.69;34.94;96837.84;5006483;28;20021;-29
2021/10/17 05:18:52;;;;;;;3.28;1.40;;;;;;;25.68;35.00;96841.41;5009228;28;20037;-30
2021/10/17 05:21:18;;;;;;;3.03;1.20;;;;;;;25.68;34.82;96844.03;5015687;28;20824;-31
2021/10/17 05:23:43;;;;;;;1.20;1.10;;;;;;;25.68;34.83;96841.41;5008721;28;20040;-30
2021/10/17 05:26:09;;;;;;;1.70;1.23;;;;;;;25.67;34.89;96842.34;5011908;28;20428;-31
2021/10/17 05:28:34;;;;;;;1.52;1.10;;;;;;;25.68;34.77;96833.53;5006607;28;20038;-31
2021/10/17 05:31:00;;;;;;;1.10;1.00;;;;;;;25.66;34.86;96841.50;5010594;28;20025;-29
2021/10/17 05:33:33;;;;;;;1.65;1.13;;;;;;;25.67;34.93;96839.72;5012314;28;20032;-32
2021/10/17 05:35:58;;;;;;;1.27;1.17;;;;;;;25.67;34.84;96842.34;5010275;28;20053;-32
2021/10/17 05:38:24;;;;;;;2.08;0.93;;;;;;;25.67;34.94;96844.97;5001907;28;20668;-30
2021/10/17 05:40:49;;;;;;;1.20;1.10;;;;;;;25.66;34.86;96844.13;5007016;28;20040;-32
2021/10/17 05:43:14;;;;;;;1.38;1.00;;;;;;;25.66;35.05;96843.28;5010509;28;20026;-32
2021/10/17 05:45:40;;;;;;;2.10;1.23;;;;;;;25.67;34.97;96844.97;5009909;28;20048;-31
2021/10/17 05:48:05;;;;;;;0.90;0.90;;;;;;;25.66;34.82;96846.75;5008927;28;20044;-31
2021/10/17 05:50:30;;;;;;;1.10;0.95;;;;;;;25.66;35.03;96849.38;5012508;28;20520;-30
2021/10/17 05:52:56;;;;;;;1.48;1.30;;;;;;;25.65;34.99;96852.91;5010729;28;20575;-32
2021/10/17 05:55:21;;;;;;;1.30;1.20;;;;;;;25.66;34.96;96854.63;5006049;28;20030;-31
2021/10/17 05:57:47;;;;;;;1.42;1.08;;;;;;;25.65;34.99;96852.91;5013051;28;20025;-30
2021/10/17 06:00:12;;;;;;;1.58;1.15;;;;;;;25.65;34.98;96858.16;5009699;28;20080;-31
2021/10/17 06:02:38;;;;;;;1.80;1.40;;;;;;;25.65;35.11;96857.31;5012230;28;20366;-30
2021/10/17 06:05:04;;;;;;;1.92;1.05;;;;;;;25.65;34.98;96857.31;5012540;28;20385;-33
2021/10/17 06:07:29;;;;;;;1.42;1.33;;;;;;;25.61;34.97;96850.53;5012558;28;20033;-30
2021/10/17 06:09:54;;;;;;;1.38;1.27;;;;;;;25.65;34.92;96863.41;5014024;28;20076;-30
2021/10/17 06:12:20;;;;;;;1.77;1.25;;;;;;;25.64;35.06;96863.50;5013662;28;20033;-31
2021/10/17 06:14:45;;;;;;;1.60;1.33;;;;;;;25.65;35.07;96870.44;5011699;28;20044;-32
2021/10/17 06:17:11;;;;;;;1.45;1.20;;;;;;;25.64;35.02;96876.63;5010390;28;20045;-30
2021/10/17 06:19:36;;;;;;;1.50;1.38;;;;;;;25.65;35.06;96878.31;5012671;28;20036;-32
2021/10/17 06:22:06;;;;;;;1.05;0.98;;;;;;;25.64;34.90;96882.72;5010014;28;20088;-30
2021/10/17 06:24:31;;;;;;;1.40;1.20;;;;;;;25.64;34.88;96892.38;5009422;28;20114;-29
2021/10/17 06:26:57;;;;;;;1.58;1.25;;;;;;;25.64;34.92;96895.00;5011132;28;20339;-31
2021/10/17 06:29:22;;;;;;;0.90;0.90;;;;;;;25.64;35.13;96897.63;5012997;28;20116;-29
2021/10/17 06:31:48;;;;;;;1.40;1.30;;;;;;;25.64;34.98;96897.63;5010283;28;20029;-31
2021/10/17 06:34:13;;;;;;;1.25;1.08;;;;;;;25.63;34.97;96906.41;5011903;28;20029;-29
2021/10/17 06:36:39;;;;;;;1.83;1.20;;;;;;;25.63;34.94;96909.03;5005280;28;20037;-29
2021/10/17 06:39:04;;;;;;;1.30;1.20;;;;;;;25.63;35.04;96911.66;5001136;28;20403;-26
2021/10/17 06:41:29;;;;;;;1.40;1.30;;;;;;;25.63;34.87;96914.28;5001028;28;20021;-32
2021/10/17 06:43:55;;;;;;;1.38;1.05;;;;;;;25.63;35.03;96911.66;5011109;28;20040;-29
2021/10/17 06:46:20;;;;;;;1.65;1.35;;;;;;;25.64;34.99;96913.34;5002721;28;20095;-26
2021/10/17 06:48:45;;;;;;;3.88;1.70;;;;;;;25.63;35.01;96919.53;5002011;28;20500;-31
2021/10/17 06:51:11;;;;;;;2.85;1.80;;;;;;;25.62;35.02;96915.22;4998964;28;20045;-29
2021/10/17 06:53:36;;;;;;;7.05;2.20;;;;;;;25.61;35.02;96924.00;5003480;28;20036;-29
2021/10/17 06:56:02;;;;;;;7.25;2.50;;;;;;;25.60;35.08;96917.94;5005160;28;21946;-29
2021/10/17 06:58:27;;;;;;;7.05;2.22;;;;;;;25.61;35.11;96924.00;4998308;28;20555;-29
2021/10/17 07:00:53;;;;;;;6.25;2.70;;;;;;;25.61;35.00;96929.25;5004952;28;20088;-30
2021/10/17 07:03:18;;;;;;;6.47;2.65;;;;;;;25.60;35.08;96922.31;5008548;28;20033;-30
2021/10/17 07:05:43;;;;;;;7.93;2.38;;;;;;;25.60;35.21;96930.19;4999813;28;20704;-29
2021/10/17 07:08:09;;;;;;;6.70;3.22;;;;;;;25.59;34.83;96931.13;5000683;28;20037;-28
2021/10/17 07:10:34;;;;;;;14.93;3.60;;;;;;;25.59;34.64;96946.84;5002415;28;20031;-30
2021/10/17 07:12:59;;;;;;;9.32;3.75;;;;;;;25.57;34.53;96937.28;4997283;28;20025;-31
2021/10/17 07:15:25;;;;;;;14.10;3.70;;;;;;;25.53;34.67;96935.72;5001102;28;20037;-26
2021/10/17 07:17:50;;;;;;;10.18;3.67;;;;;;;25.57;34.63;96941.69;4989007;28;20045;-31
2021/10/17 07:20:16;;;;;;;10.50;3.58;;;;;;;25.57;34.82;96939.91;5000546;28;20067;-30
2021/10/17 07:22:41;;;;;;;9.98;3.40;;;;;;;25.57;34.82;96937.28;4998016;28;20037;-27
2021/10/17 07:25:06;;;;;;;14.77;3.55;;;;;;;25.57;34.89;96939.91;5000778;28;20041;-30
2021/10/17 07:27:32;;;;;;;10.10;3.08;;;;;;;25.57;34.89;96944.31;4999983;28;20599;-32
2021/10/17 07:29:57;;;;;;;10.70;3.38;;;;;;;25.57;34.98;96945.16;4999502;28;20594;-26
2021/10/17 07:32:23;;;;;;;11.98;3.20;;;;;;;25.57;34.87;96939.91;4998224;28;20166;-32
2021/10/17 07:34:48;;;;;;;8.02;2.95;;;;;;;25.57;34.87;96939.91;4998426;28;20347;-28
2021/10/17 07:37:13;;;;;;;10.23;2.95;;;;;;;25.57;35.12;96950.41;5000006;28;20036;-30
2021/10/17 07:39:39;;;;;;;10.10;3.00;;;;;;;25.56;34.97;96948.69;5000542;28;20037;-31
2021/10/17 07:42:04;;;;;;;6.82;2.90;;;;;;;25.56;35.01;96951.31;5000634;28;20084;-31
2021/10/17 07:44:30;;;;;;;10.70;3.42;;;;;;;25.56;35.17;96959.19;4999340;28;20025;-26
2021/10/17 07:46:55;;;;;;;6.68;2.63;;;;;;;25.57;35.16;96954.81;4997918;28;20021;-32
2021/10/17 07:49:21;;;;;;;7.72;2.78;;;;;;;25.57;35.04;96958.28;5000470;28;20040;-31
2021/10/17 07:51:46;;;;;;;6.45;2.78;;;;;;;25.57;35.15;96963.53;5011702;28;20655;-31
2021/10/17 07:54:12;;;;;;;7.07;2.65;;;;;;;25.59;35.07;96962.59;5009520;28;20026;-28
2021/10/17 07:56:37;;;;;;;6.75;2.55;;;;;;;25.57;35.14;96957.44;5013573;28;20036;-28
2021/10/17 07:59:03;;;;;;;7.93;3.00;;;;;;;25.58;35.21;96961.75;5009306;28;20037;-31
2021/10/17 08:01:28;;;;;;;7.40;2.58;;;;;;;25.59;34.93;96957.34;5011607;28;20029;-31
2021/10/17 08:03:53;;;;;;;10.30;2.85;;;;;;;25.57;35.29;96963.53;5009485;28;20033;-30
2021/10/17 08:06:19;;;;;;;5.15;2.72;;;;;;;25.59;35.36;96959.97;5010004;28;20033;-30
2021/10/17 08:08:44;;;;;;;11.88;2.63;;;;;;;25.60;35.52;96961.66;5008336;28;20092;-31
2021/10/17 08:11:10;;;;;;;8.55;2.38;;;;;;;25.60;35.51;96965.16;5014099;28;20021;-31
2021/10/17 08:13:35;;;;;;;5.97;2.42;;;;;;;25.61;35.60;96958.13;5013914;28;20033;-29
2021/10/17 08:16:00;;;;;;;7.85;2.70;;;;;;;25.61;35.52;96966.00;5016528;28;20032;-29
2021/10/17 08:18:26;;;;;;;6.47;2.90;;;;;;;25.61;35.65;96960.75;5010328;28;20033;-29
2021/10/17 08:20:52;;;;;;;5.53;2.60;;;;;;;25.62;35.52;96967.72;5009044;28;20018;-26
2021/10/17 08:23:18;;;;;;;5.70;2.38;;;;;;;25.63;35.61;96966.78;5011110;28;20036;-29
2021/10/17 08:25:43;;;;;;;8.13;2.60;;;;;;;25.63;35.49;96962.34;5011076;28;20021;-30
2021/10/17 08:28:12;;;;;;;7.57;2.30;;;;;;;25.63;35.57;96956.28;5006498;28;20288;-31
2021/10/17 08:30:38;;;;;;;4.97;2.50;;;;;;;25.63;35.53;96959.75;5012287;28;20611;-31
2021/10/17 08:33:03;;;;;;;5.03;2.30;;;;;;;25.64;35.57;96957.97;5017530;28;20029;-30
2021/10/17 08:35:29;;;;;;;4.97;2.03;;;;;;;25.63;35.48;96958.91;5015435;28;20033;-29
2021/10/17 08:37:54;;;;;;;4.60;2.60;;;;;;;25.64;35.55;96957.97;5004733;28;20571;-29
2021/10/17 08:40:20;;;;;;;4.88;2.30;;;;;;;25.63;35.56;96964.97;5005781;28;20033;-31
2021/10/17 08:42:45;;;;;;;5.03;2.50;;;;;;;25.63;35.53;96964.16;4999185;28;20040;-29
2021/10/17 08:45:10;;;;;;;5.18;2.60;;;;;;;25.64;35.57;96965.84;5010832;28;20511;-31
2021/10/17 08:47:36;;;;;;;7.55;2.85;;;;;;;25.64;35.53;96968.47;5015318;28;20036;-30
2021/10/17 08:50:01;;;;;;;7.70;3.13;;;;;;;25.64;35.43;96964.09;4996132;28;21000;-32
2021/10/17 08:52:27;;;;;;;7.38;3.08;;;;;;;25.65;35.63;96978.03;4996692;28;20037;-33
2021/10/17 08:54:52;;;;;;;7.28;5.13;;;;;;;25.64;32.43;96971.09;4994166;28;20344;-33
2021/10/17 08:57:17;;;;;;;6.50;5.80;;;;;;;25.54;30.80;96968.91;4996183;28;20638;-30
2021/10/17 08:59:50;;;;;;;9.30;6.35;;;;;;;25.36;28.96;96967.19;5001041;28;20042;-28
2021/10/17 09:02:16;;;;;;;7.53;6.72;;;;;;;25.12;28.96;96967.41;5000529;28;20096;-29
2021/10/17 09:04:42;;;;;;;8.27;6.80;;;;;;;24.82;28.37;96971.38;5003519;28;20076;-26
2021/10/17 09:07:18;;;;;;;8.90;6.10;;;;;;;24.50;28.89;96971.94;5001246;28;20084;-29
2021/10/17 09:10:06;;;;;;;7.45;5.10;;;;;;;24.32;29.87;96970.16;5004924;28;20037;-28
2021/10/17 09:12:32;;;;;;;7.50;3.80;;;;;;;24.20;30.69;96961.91;4985097;28;20053;-29
2021/10/17 09:15:18;;;;;;;8.95;3.67;;;;;;;24.16;31.36;96968.19;5005756;28;22141;-30
2021/10/17 09:18:05;;;;;;;8.38;3.03;;;;;;;24.19;32.05;96964.59;5005190;28;20037;-30
2021/10/17 09:20:31;;;;;;;5.57;2.60;;;;;;;24.22;32.21;96965.28;5002754;28;20026;-32
2021/10/17 09:22:59;;;;;;;4.20;2.65;;;;;;;24.26;32.58;96966.84;5000648;28;20032;-33
2021/10/17 09:25:29;;;;;;;6.18;2.30;;;;;;;24.32;32.86;96970.16;5003294;28;20026;-30
2021/10/17 09:27:54;;;;;;;4.45;2.38;;;;;;;24.38;33.02;96956.78;5009899;28;20116;-30
2021/10/17 09:30:20;;;;;;;6.05;1.83;;;;;;;24.45;33.00;96950.34;5002422;28;20033;-29
2021/10/17 09:32:45;;;;;;;4.75;2.08;;;;;;;24.51;33.14;96954.44;5008475;28;20025;-32
2021/10/17 09:35:11;;;;;;;3.90;2.10;;;;;;;24.58;33.17;96952.38;5010282;28;20117;-33
2021/10/17 09:37:40;;;;;;;3.92;2.10;;;;;;;24.64;33.38;96950.34;5004554;28;20033;-27
2021/10/17 09:40:06;;;;;;;6.30;2.55;;;;;;;24.70;33.42;96949.22;4980059;28;20056;-29
2021/10/17 09:42:39;;;;;;;6.70;2.80;;;;;;;24.75;33.49;96944.59;4984786;28;20630;-27
2021/10/17 09:45:19;;;;;;;8.52;2.58;;;;;;;24.82;33.56;96946.97;4989383;28;20121;-29
2021/10/17 09:47:45;;;;;;;7.22;2.80;;;;;;;24.86;33.54;96949.38;4988973;28;20099;-30
2021/10/17 09:50:18;;;;;;;8.20;2.75;;;;;;;24.92;33.55;96945.63;4988334;28;20033;-28
2021/10/17 09:53:03;;;;;;;11.25;2.70;;;;;;;24.96;33.57;96934.06;4989117;28;20843;-30
2021/10/17 09:55:29;;;;;;;9.13;3.15;;;;;;;24.99;33.72;96930.44;4989122;28;20041;-30
2021/10/17 09:57:54;;;;;;;6.50;2.85;;;;;;;25.03;33.66;96942.50;4986217;28;20034;-26
2021/10/17 10:00:19;;;;;;;10.15;3.05;;;;;;;25.04;33.84;96937.19;4989391;28;20114;-30
2021/10/17 10:02:49;;;;;;;11.00;3.38;;;;;;;25.08;33.90;96934.41;4987978;28;20410;-31
2021/10/17 10:05:16;;;;;;;12.18;2.95;;;;;;;25.10;33.93;96936.06;4991195;28;20014;-31
2021/10/17 10:07:41;;;;;;;12.02;3.20;;;;;;;25.12;33.68;96939.44;4991845;28;20145;-31
2021/10/17 10:10:07;;;;;;;10.20;3.20;;;;;;;25.14;34.06;96929.69;4986538;28;20030;-29
2021/10/17 10:12:32;;;;;;;14.57;3.80;;;;;;;25.17;34.08;96933.97;4988099;28;20727;-32
2021/10/17 10:14:58;;;;;;;10.10;3.72;;;;;;;25.19;33.97;96934.75;4988134;28;20079;-32
2021/10/17 10:17:24;;;;;;;11.40;3.42;;;;;;;25.20;34.03;96931.19;4970015;28;20021;-30
2021/10/17 10:19:49;;;;;;;9.02;3.08;;;;;;;25.23;34.14;96936.28;4990404;28;20048;-30
2021/10/17 10:22:16;;;;;;;10.73;3.58;;;;;;;25.25;34.29;96931.81;4985244;28;20514;-26
2021/10/17 10:24:47;;;;;;;9.50;3.40;;;;;;;25.27;34.06;96937.84;4995384;28;20040;-29
2021/10/17 10:27:12;;;;;;;9.47;3.53;;;;;;;25.27;34.15;96940.47;4983093;28;20057;-32
2021/10/17 10:29:37;;;;;;;10.85;3.42;;;;;;;25.30;34.25;96932.47;4988464;28;20033;-29
2021/10/17 10:32:05;;;;;;;8.75;3.30;;;;;;;25.34;34.30;96937.53;4988331;28;20038;-29
2021/10/17 10:34:37;;;;;;;8.35;3.05;;;;;;;25.35;34.17;96939.25;4982170;28;20030;-31
2021/10/17 10:37:15;;;;;;;8.27;2.90;;;;;;;25.36;34.52;96933.91;4983513;28;20044;-30
2021/10/17 10:39:59;;;;;;;7.68;3.15;;;;;;;25.38;34.46;96931.22;4989376;28;20087;-29
2021/10/17 10:42:41;;;;;;;10.68;3.33;;;;;;;25.39;34.41;96938.16;4983398;28;20443;-30
2021/10/17 10:45:19;;;;;;;;;;;;;;;25.40;34.34;96930.22;4988492;28;20054;-30
2021/10/17 10:47:47;;;;;;;8.02;2.55;;;;;;;25.42;34.48;96940.63;4984496;28;19916;-31
2021/10/17 10:50:12;;;;;;;7.75;3.13;;;;;;;25.42;34.58;96936.25;4984562;28;20523;-26
2021/10/17 10:52:41;;;;;;;6.68;3.13;;;;;;;25.43;34.54;96940.56;4983687;28;20037;-26
2021/10/17 10:55:11;;;;;;;8.43;2.80;;;;;;;25.44;34.54;96944.06;4999652;28;20021;-31
2021/10/17 10:57:41;;;;;;;9.20;2.90;;;;;;;25.45;34.63;96932.63;4983337;28;20504;-30
2021/10/17 11:00:08;;;;;;;7.78;2.95;;;;;;;25.47;34.52;96938.63;4980648;28;20492;-28
2021/10/17 11:02:33;;;;;;;5.45;2.53;;;;;;;25.49;34.52;96931.53;4984926;28;20038;-31
2021/10/17 11:05:00;;;;;;;6.72;3.03;;;;;;;25.50;34.56;96933.25;5001538;28;20033;-31
2021/10/17 11:07:31;;;;;;;5.72;2.60;;;;;;;25.52;34.61;96925.28;4984673;28;20030;-34
2021/10/17 11:10:23;;;;;;;6.65;2.80;;;;;;;25.53;34.74;96922.59;4984165;28;20096;-29
2021/10/17 11:12:49;;;;;;;4.63;2.47;;;;;;;25.55;34.59;96925.16;4980419;28;20022;-31
2021/10/17 11:15:16;;;;;;;6.10;2.65;;;;;;;25.57;34.59;96924.19;4981347;28;20052;-30
2021/10/17 11:17:55;;;;;;;7.63;2.88;;;;;;;25.59;34.65;96923.25;4981890;28;20529;-29
2021/10/17 11:20:28;;;;;;;5.75;2.30;;;;;;;25.59;34.67;96915.38;4980989;28;20692;-30
2021/10/17 11:22:54;;;;;;;6.45;2.40;;;;;;;25.62;34.71;96920.47;4986863;28;20061;-31
2021/10/17 11:25:20;;;;;;;4.38;2.25;;;;;;;25.62;34.74;96915.22;4987970;28;21000;-32
2021/10/17 11:27:46;;;;;;;5.03;2.38;;;;;;;25.63;34.76;96912.50;4986305;28;20033;-31
2021/10/17 11:30:23;;;;;;;7.68;2.75;;;;;;;25.66;34.76;96916.78;4988968;28;20065;-27